Time;durP1;ratioP1;P1;durP2;ratioP2;P2;SDS_P1;SDS_P2;PMS_P1;PMS_P2;Temp;Humidity;BMP_temperature;BMP_pressure;BME280_temperature;BME280_humidity;BME280_pressure;Samples;Min_cycle;Max_cycle;Signal;HPM_P1;HPM_P2
2021/05/27 00:01:51;;;;;;;6.10;5.50;;;;;;;12.25;100.00;101780.16;1872151;76;26192;-74
2021/05/27 00:04:21;;;;;;;6.17;5.60;;;;;;;12.19;100.00;101792.38;1872142;76;26172;-74
2021/05/27 00:06:51;;;;;;;6.30;5.70;;;;;;;12.10;100.00;101790.41;1872034;76;26226;-74
2021/05/27 00:09:21;;;;;;;8.17;6.13;;;;;;;12.00;100.00;101794.53;1872004;77;26200;-74
2021/05/27 00:11:51;;;;;;;6.00;5.50;;;;;;;11.89;100.00;101788.65;1872174;76;26615;-74
2021/05/27 00:14:21;;;;;;;6.40;5.77;;;;;;;11.89;100.00;101795.06;1872240;76;26184;-74
2021/05/27 00:16:50;;;;;;;7.30;6.03;;;;;;;11.90;100.00;101793.92;1872159;77;26201;-74
2021/05/27 00:19:20;;;;;;;8.53;6.03;;;;;;;11.86;100.00;101803.94;1872139;76;26237;-74
2021/05/27 00:21:50;;;;;;;6.63;5.97;;;;;;;11.75;100.00;101803.05;1872131;76;26684;-74
2021/05/27 00:24:20;;;;;;;9.03;6.63;;;;;;;11.53;100.00;101800.94;1872369;76;26291;-74
2021/05/27 00:26:50;;;;;;;8.37;7.40;;;;;;;11.59;100.00;101797.09;1872092;76;26317;-74
2021/05/27 00:29:20;;;;;;;8.07;6.73;;;;;;;11.61;100.00;101800.42;1872153;76;26774;-74
2021/05/27 00:31:50;;;;;;;8.43;6.90;;;;;;;11.58;100.00;101803.75;1872134;76;26296;-74
2021/05/27 00:34:19;;;;;;;7.27;6.50;;;;;;;11.60;100.00;101808.48;1872237;77;26193;-74
2021/05/27 00:36:49;;;;;;;8.03;6.20;;;;;;;11.54;100.00;101812.36;1872173;76;26192;-75
2021/05/27 00:39:19;;;;;;;8.37;6.40;;;;;;;11.38;100.00;101811.39;1872102;76;26262;-74
2021/05/27 00:41:49;;;;;;;7.30;6.40;;;;;;;11.24;100.00;101812.14;1872232;77;26192;-74
2021/05/27 00:44:24;;;;;;;7.20;6.50;;;;;;;11.18;100.00;101811.25;1872191;76;26290;-74
2021/05/27 00:46:55;;;;;;;7.17;6.33;;;;;;;11.13;100.00;101807.03;1872169;76;26254;-74
2021/05/27 00:49:27;;;;;;;7.73;6.33;;;;;;;11.21;100.00;101811.28;1872142;76;26338;-74
2021/05/27 00:51:57;;;;;;;8.83;6.63;;;;;;;11.26;100.00;101812.69;1872227;76;26337;-74
2021/05/27 00:54:27;;;;;;;7.43;6.67;;;;;;;11.26;100.00;101816.86;1872121;77;26791;-74
2021/05/27 00:56:58;;;;;;;8.60;7.47;;;;;;;11.18;100.00;101819.59;1872239;76;26647;-74
2021/05/27 00:59:28;;;;;;;8.90;7.33;;;;;;;11.20;100.00;101813.77;1872249;76;26679;-74
2021/05/27 01:01:58;;;;;;;8.67;7.33;;;;;;;11.15;100.00;101815.95;1872342;76;26299;-74
2021/05/27 01:04:27;;;;;;;7.97;7.07;;;;;;;11.10;100.00;101818.69;1872272;76;26196;-74
2021/05/27 01:06:57;;;;;;;7.73;6.97;;;;;;;11.04;100.00;101819.73;1872264;76;26277;-74
2021/05/27 01:09:27;;;;;;;8.53;7.70;;;;;;;10.89;100.00;101821.00;1872076;77;26252;-74
2021/05/27 01:11:57;;;;;;;8.73;7.90;;;;;;;10.86;100.00;101820.16;1872174;76;26699;-74
2021/05/27 01:17:16;;;;;;;8.67;7.83;;;;;;;10.75;100.00;101819.75;1872192;77;26620;-73
2021/05/27 01:19:45;;;;;;;10.33;8.10;;;;;;;10.73;100.00;101825.59;1872195;76;26275;-74
2021/05/27 01:22:15;;;;;;;10.17;8.80;;;;;;;10.70;100.00;101817.75;1872122;76;26280;-73
2021/05/27 01:24:45;;;;;;;10.47;8.53;;;;;;;10.71;100.00;101825.55;1872077;77;26196;-74
2021/05/27 01:27:16;;;;;;;12.50;8.60;;;;;;;10.63;100.00;101826.86;1872265;76;26205;-74
2021/05/27 01:29:51;;;;;;;9.27;8.00;;;;;;;10.67;100.00;101828.02;1872106;76;26196;-74
2021/05/27 01:32:22;;;;;;;10.23;8.50;;;;;;;10.62;100.00;101832.12;1872219;76;26183;-74
2021/05/27 01:34:52;;;;;;;10.03;8.53;;;;;;;10.59;100.00;101830.42;1872181;76;26286;-74
2021/05/27 01:37:21;;;;;;;9.83;8.83;;;;;;;10.56;100.00;101830.41;1872134;76;26268;-74
2021/05/27 01:39:51;;;;;;;11.53;9.27;;;;;;;10.59;100.00;101829.03;1872134;76;26617;-74
2021/05/27 01:42:22;;;;;;;9.37;8.37;;;;;;;10.55;100.00;101835.67;1872172;77;26262;-74
2021/05/27 01:44:52;;;;;;;11.90;7.23;;;;;;;10.46;100.00;101848.34;1872107;76;26193;-73
2021/05/27 01:47:22;;;;;;;7.83;7.13;;;;;;;10.42;100.00;101852.19;1872219;76;26180;-74
2021/05/27 01:49:52;;;;;;;8.60;7.70;;;;;;;10.33;100.00;101855.68;1872109;76;26193;-74
2021/05/27 01:52:21;;;;;;;7.20;6.60;;;;;;;10.25;100.00;101857.53;1872268;76;26262;-74
2021/05/27 01:54:51;;;;;;;8.27;6.87;;;;;;;10.11;100.00;101865.91;1872187;76;26248;-74
2021/05/27 01:57:21;;;;;;;6.37;5.00;;;;;;;10.06;100.00;101862.52;1872202;76;26620;-74
2021/05/27 01:59:51;;;;;;;6.97;5.27;;;;;;;9.96;100.00;101860.46;1872284;76;26243;-74
2021/05/27 02:02:21;;;;;;;5.20;4.70;;;;;;;9.95;100.00;101871.27;1872138;76;26343;-74
2021/05/27 02:04:50;;;;;;;5.47;3.80;;;;;;;9.90;100.00;101862.86;1872178;77;26644;-74
2021/05/27 02:07:20;;;;;;;4.00;3.60;;;;;;;9.82;100.00;101866.08;1872122;76;26254;-74
2021/05/27 02:09:50;;;;;;;3.60;3.30;;;;;;;9.79;100.00;101867.14;1872108;77;26203;-74
2021/05/27 02:12:20;;;;;;;4.77;4.37;;;;;;;9.75;100.00;101868.75;1872067;77;26598;-74
2021/05/27 02:14:49;;;;;;;6.40;5.80;;;;;;;9.79;100.00;101868.53;1872183;76;26273;-74
2021/05/27 02:17:19;;;;;;;7.47;5.67;;;;;;;9.69;100.00;101867.83;1872109;76;26205;-74
2021/05/27 02:19:49;;;;;;;6.67;5.80;;;;;;;9.68;100.00;101865.30;1872037;77;26297;-74
2021/05/27 02:22:19;;;;;;;5.93;5.23;;;;;;;9.67;100.00;101865.84;1872110;76;26251;-74
2021/05/27 02:24:49;;;;;;;6.43;5.83;;;;;;;9.69;100.00;101871.98;1872193;76;26261;-74
2021/05/27 02:27:19;;;;;;;6.90;6.20;;;;;;;9.72;100.00;101864.53;1872196;76;26180;-74
2021/05/27 02:29:49;;;;;;;7.17;6.33;;;;;;;9.73;100.00;101872.31;1872156;77;26248;-74
2021/05/27 02:32:19;;;;;;;10.40;7.90;;;;;;;9.78;100.00;101876.55;1872059;77;26738;-74
2021/05/27 02:34:49;;;;;;;8.80;7.90;;;;;;;9.66;100.00;101878.59;1872050;77;26692;-74
2021/05/27 02:37:18;;;;;;;10.10;8.90;;;;;;;9.79;100.00;101874.92;1872184;76;26713;-74
2021/05/27 02:39:48;;;;;;;12.43;8.87;;;;;;;9.78;100.00;101876.55;1872110;76;26178;-74
2021/05/27 02:42:18;;;;;;;10.03;8.70;;;;;;;9.76;100.00;101882.89;1872193;76;26682;-74
2021/05/27 02:44:48;;;;;;;10.63;9.53;;;;;;;9.85;100.00;101881.37;1872260;76;26189;-74
2021/05/27 02:47:18;;;;;;;11.70;9.23;;;;;;;9.82;100.00;101880.50;1872065;77;26443;-74
2021/05/27 02:49:47;;;;;;;10.13;7.50;;;;;;;9.83;100.00;101879.41;1872180;76;26236;-73
2021/05/27 02:52:17;;;;;;;8.57;7.73;;;;;;;9.76;100.00;101879.58;1872199;76;26258;-73
2021/05/27 02:54:47;;;;;;;9.70;8.07;;;;;;;9.69;100.00;101872.53;1872137;77;26355;-74
2021/05/27 02:57:17;;;;;;;9.60;8.37;;;;;;;9.61;100.00;101887.67;1872190;76;26215;-74
2021/05/27 02:59:47;;;;;;;9.53;8.53;;;;;;;9.60;100.00;101886.83;1872086;76;26286;-74
2021/05/27 03:02:16;;;;;;;10.03;9.03;;;;;;;9.58;100.00;101886.80;1872063;77;26746;-74
2021/05/27 03:04:46;;;;;;;10.63;8.40;;;;;;;9.64;100.00;101886.31;1872099;76;26203;-74
2021/05/27 03:07:16;;;;;;;10.93;9.37;;;;;;;9.58;100.00;101894.55;1872144;76;26259;-74
2021/05/27 03:09:46;;;;;;;10.27;9.03;;;;;;;9.55;100.00;101890.91;1872146;76;26599;-74
2021/05/27 03:12:15;;;;;;;12.13;8.40;;;;;;;9.51;100.00;101895.28;1872049;76;26249;-74
2021/05/27 03:14:45;;;;;;;11.57;9.20;;;;;;;9.54;100.00;101891.99;1872195;76;26672;-74
2021/05/27 03:17:15;;;;;;;10.97;8.97;;;;;;;9.55;100.00;101894.22;1872081;76;26188;-74
2021/05/27 03:19:45;;;;;;;11.23;9.23;;;;;;;9.60;100.00;101889.61;1872063;77;26229;-73
2021/05/27 03:22:14;;;;;;;10.83;9.20;;;;;;;9.57;100.00;101891.52;1872183;76;26185;-74
2021/05/27 03:24:44;;;;;;;10.83;9.57;;;;;;;9.53;100.00;101900.59;1872040;76;26189;-74
2021/05/27 03:27:14;;;;;;;10.97;9.87;;;;;;;9.48;100.00;101894.95;1872021;77;26619;-74
2021/05/27 03:29:44;;;;;;;9.97;8.60;;;;;;;9.49;100.00;101896.09;1871986;77;26240;-74
2021/05/27 03:32:14;;;;;;;10.97;9.30;;;;;;;9.43;100.00;101899.02;1872192;77;26208;-73
2021/05/27 03:34:43;;;;;;;13.03;9.37;;;;;;;9.43;100.00;101899.02;1872037;77;26286;-73
2021/05/27 03:37:13;;;;;;;11.27;8.77;;;;;;;9.36;100.00;101902.52;1872093;76;26192;-74
2021/05/27 03:40:10;;;;;;;11.77;8.70;;;;;;;9.38;100.00;101901.70;1872025;77;26192;-74
2021/05/27 03:42:15;;;;;;;11.30;9.23;;;;;;;9.32;100.00;101906.34;1868945;77;26256;-74
2021/05/27 03:44:44;;;;;;;9.80;8.83;;;;;;;9.36;100.00;101905.30;1872034;76;26243;-74
2021/05/27 03:47:31;;;;;;;10.47;9.17;;;;;;;9.34;100.00;101910.23;1818754;79;33196;-74
2021/05/27 03:50:01;;;;;;;12.90;8.73;;;;;;;9.27;100.00;101909.57;1819406;79;26330;-73
2021/05/27 03:52:31;;;;;;;10.63;9.00;;;;;;;9.20;100.00;101911.09;1819271;79;26740;-74
2021/05/27 03:55:01;;;;;;;10.00;8.70;;;;;;;9.21;100.00;101910.02;1819388;79;26235;-74
2021/05/27 03:57:31;;;;;;;9.83;8.23;;;;;;;9.25;100.00;101915.89;1819293;79;26321;-74
2021/05/27 04:02:49;;;;;;;10.90;8.53;;;;;;;9.17;100.00;101917.16;1819494;79;26890;-74
2021/05/27 04:08:07;;;;;;;11.30;8.83;;;;;;;9.17;100.00;101919.92;1819407;79;26435;-73
2021/05/27 04:10:37;;;;;;;10.90;8.70;;;;;;;9.19;100.00;101925.23;1819459;79;26215;-74
2021/05/27 04:13:07;;;;;;;10.37;9.17;;;;;;;9.02;100.00;101922.44;1819324;79;26227;-74
2021/05/27 04:15:39;;;;;;;11.73;8.70;;;;;;;8.93;100.00;101924.77;1819387;79;26654;-74
2021/05/27 04:18:12;;;;;;;10.17;7.80;;;;;;;8.98;100.00;101927.64;1830772;77;26672;-74
2021/05/27 04:20:46;;;;;;;14.20;9.87;;;;;;;9.05;100.00;101927.47;1872199;76;26206;-73
2021/05/27 04:23:32;;;;;;;10.20;8.47;;;;;;;9.14;100.00;101926.82;1872215;77;26275;-73
2021/05/27 04:25:50;;;;;;;12.00;9.10;;;;;;;9.13;100.00;101926.52;1870317;76;26285;-73
2021/05/27 04:28:19;;;;;;;11.60;9.00;;;;;;;9.07;100.00;101924.73;1872228;77;26655;-73
2021/05/27 04:31:09;;;;;;;11.17;8.87;;;;;;;9.15;100.00;101929.05;1876910;75;26282;-73
2021/05/27 04:33:40;;;;;;;10.77;8.80;;;;;;;9.19;100.00;101929.39;1877599;76;26265;-73
2021/05/27 04:36:11;;;;;;;10.70;9.20;;;;;;;9.18;100.00;101932.70;1877756;76;26741;-73
2021/05/27 04:38:41;;;;;;;11.07;9.10;;;;;;;9.17;100.00;101935.72;1877608;76;26185;-73
2021/05/27 04:41:12;;;;;;;11.17;9.30;;;;;;;9.19;100.00;101935.78;1877658;76;26765;-73
2021/05/27 04:43:42;;;;;;;9.97;8.97;;;;;;;9.21;100.00;101943.83;1877594;76;26229;-73
2021/05/27 04:46:12;;;;;;;13.13;9.17;;;;;;;9.22;100.00;101948.28;1877602;76;26325;-72
2021/05/27 04:48:42;;;;;;;11.83;9.40;;;;;;;9.27;100.00;101953.93;1877589;76;26695;-73
2021/05/27 04:51:12;;;;;;;12.67;10.20;;;;;;;9.32;100.00;101951.25;1877571;76;26201;-73
2021/05/27 04:53:41;;;;;;;12.63;9.63;;;;;;;9.38;100.00;101945.53;1877697;76;26310;-73
2021/05/27 04:56:11;;;;;;;14.43;10.07;;;;;;;9.44;100.00;101945.93;1877652;76;26200;-73
2021/05/27 04:58:41;;;;;;;13.83;10.13;;;;;;;9.39;100.00;101943.06;1877596;76;26225;-73
2021/05/27 05:01:11;;;;;;;10.43;9.30;;;;;;;9.42;100.00;101949.48;1877590;76;26383;-73
2021/05/27 05:03:41;;;;;;;13.43;10.40;;;;;;;9.43;100.00;101943.39;1877628;76;26692;-73
2021/05/27 05:06:11;;;;;;;11.67;10.40;;;;;;;9.51;100.00;101947.14;1877687;76;26220;-73
2021/05/27 05:08:41;;;;;;;11.40;8.90;;;;;;;9.52;100.00;101950.21;1877625;76;26299;-73
2021/05/27 05:11:11;;;;;;;10.60;8.87;;;;;;;9.55;100.00;101951.09;1877588;76;26176;-74
2021/05/27 05:13:40;;;;;;;10.60;9.27;;;;;;;9.52;100.00;101951.59;1877646;76;26660;-73
2021/05/27 05:16:10;;;;;;;10.53;9.10;;;;;;;9.55;100.00;101955.25;1877552;76;26727;-74
2021/05/27 05:18:40;;;;;;;10.13;9.13;;;;;;;9.56;100.00;101954.16;1877545;76;26300;-73
2021/05/27 05:21:10;;;;;;;10.40;9.30;;;;;;;9.64;100.00;101955.67;1877598;76;26255;-73
2021/05/27 05:23:40;;;;;;;13.50;10.23;;;;;;;9.71;100.00;101951.66;1877619;76;26233;-73
2021/05/27 05:26:09;;;;;;;12.13;9.67;;;;;;;9.81;100.00;101957.35;1877589;76;26188;-74
2021/05/27 05:28:39;;;;;;;11.03;9.47;;;;;;;9.73;100.00;101966.10;1877713;76;26264;-74
2021/05/27 05:31:09;;;;;;;15.07;10.50;;;;;;;9.84;100.00;101963.77;1874044;76;26373;-74
2021/05/27 05:33:39;;;;;;;14.93;9.93;;;;;;;9.82;100.00;101967.36;1872296;76;26239;-73
2021/05/27 05:36:09;;;;;;;14.63;10.07;;;;;;;9.83;100.00;101969.59;1872144;76;26799;-73
2021/05/27 05:38:39;;;;;;;11.87;9.73;;;;;;;9.91;100.00;101965.01;1872148;76;26765;-74
2021/05/27 05:41:09;;;;;;;13.17;9.97;;;;;;;10.02;100.00;101976.55;1872226;76;26414;-74
2021/05/27 05:43:38;;;;;;;12.50;10.20;;;;;;;10.04;100.00;101974.38;1872200;77;26694;-74
2021/05/27 05:46:08;;;;;;;13.77;10.70;;;;;;;10.22;100.00;101972.74;1872366;77;26238;-74
2021/05/27 05:48:38;;;;;;;13.37;10.87;;;;;;;10.33;100.00;101971.78;1872118;76;26239;-74
2021/05/27 05:51:09;;;;;;;17.07;11.37;;;;;;;10.40;100.00;101972.42;1872309;76;26987;-74
2021/05/27 05:53:39;;;;;;;14.37;10.60;;;;;;;10.50;100.00;101976.73;1872104;76;26440;-73
2021/05/27 05:56:08;;;;;;;13.87;11.33;;;;;;;10.48;100.00;101980.30;1872088;77;26364;-73
2021/05/27 05:58:38;;;;;;;15.33;10.33;;;;;;;10.50;100.00;101986.46;1872192;76;26588;-73
2021/05/27 06:01:08;;;;;;;11.97;10.37;;;;;;;10.59;100.00;101977.12;1872328;77;26270;-72
2021/05/27 06:03:38;;;;;;;12.37;10.40;;;;;;;10.74;100.00;101978.70;1872131;76;26297;-73
2021/05/27 06:06:11;;;;;;;12.90;10.87;;;;;;;10.81;100.00;101979.91;1872133;76;26228;-73
2021/05/27 06:08:41;;;;;;;13.40;10.23;;;;;;;10.89;100.00;101973.89;1872252;76;26616;-73
2021/05/27 06:11:11;;;;;;;12.93;10.30;;;;;;;10.94;100.00;101974.80;1872187;76;26185;-73
2021/05/27 06:13:41;;;;;;;13.57;9.87;;;;;;;10.99;100.00;101978.73;1872177;76;26209;-74
2021/05/27 06:16:11;;;;;;;12.33;9.87;;;;;;;11.20;100.00;101976.47;1872207;76;26169;-74
2021/05/27 06:18:41;;;;;;;13.90;9.80;;;;;;;11.16;100.00;101976.70;1872159;77;26302;-73
2021/05/27 06:21:10;;;;;;;10.27;9.17;;;;;;;11.08;100.00;101979.37;1872088;76;26184;-73
2021/05/27 06:23:40;;;;;;;10.93;9.03;;;;;;;11.18;100.00;101980.05;1872253;76;26262;-75
2021/05/27 06:26:10;;;;;;;10.50;8.30;;;;;;;11.24;100.00;101984.58;1872087;77;26196;-73
2021/05/27 06:28:40;;;;;;;10.53;9.30;;;;;;;11.22;100.00;101977.03;1872331;76;26221;-74
2021/05/27 06:31:11;;;;;;;12.50;10.10;;;;;;;11.16;100.00;101978.09;1873174;76;26325;-74
2021/05/27 06:33:41;;;;;;;11.10;9.03;;;;;;;11.21;100.00;101976.77;1874509;76;26612;-73
2021/05/27 06:36:12;;;;;;;10.77;9.43;;;;;;;11.42;100.00;101973.89;1874697;76;26197;-74
2021/05/27 06:38:41;;;;;;;12.77;10.30;;;;;;;11.47;100.00;101973.11;1874600;76;26196;-73
2021/05/27 06:41:11;;;;;;;12.37;9.90;;;;;;;11.62;100.00;101976.59;1874590;76;26784;-73
2021/05/27 06:43:41;;;;;;;12.73;9.53;;;;;;;11.61;100.00;101981.87;1874627;76;26176;-73
2021/05/27 06:46:11;;;;;;;11.20;9.50;;;;;;;11.65;100.00;101980.23;1874575;76;26184;-72
2021/05/27 06:48:41;;;;;;;11.73;9.97;;;;;;;11.78;100.00;101978.43;1874644;76;26194;-73
2021/05/27 06:51:11;;;;;;;11.33;8.57;;;;;;;11.83;100.00;101972.36;1874674;76;26311;-73
2021/05/27 06:53:40;;;;;;;9.73;7.80;;;;;;;11.91;100.00;101976.59;1874480;76;26189;-72
2021/05/27 06:56:10;;;;;;;10.70;8.20;;;;;;;11.86;100.00;101970.97;1874587;76;26220;-73
2021/05/27 06:58:40;;;;;;;7.87;6.43;;;;;;;12.00;100.00;101981.95;1874516;76;26216;-72
2021/05/27 07:01:10;;;;;;;7.73;6.47;;;;;;;12.03;100.00;101975.84;1874610;76;26680;-72
2021/05/27 07:03:40;;;;;;;8.07;7.13;;;;;;;12.13;100.00;101977.86;1874681;76;26217;-71
2021/05/27 07:06:10;;;;;;;8.10;6.27;;;;;;;12.31;100.00;101976.88;1874602;76;26196;-73
2021/05/27 07:08:40;;;;;;;9.73;6.57;;;;;;;12.28;100.00;101976.55;1874502;76;26266;-70
2021/05/27 07:11:09;;;;;;;8.30;6.40;;;;;;;12.44;100.00;101979.74;1874602;76;26815;-72
2021/05/27 07:13:39;;;;;;;6.23;5.57;;;;;;;12.56;100.00;101972.00;1874621;76;26389;-71
2021/05/27 07:16:09;;;;;;;6.87;5.90;;;;;;;12.64;100.00;101974.81;1874578;76;26264;-72
2021/05/27 07:18:39;;;;;;;6.50;5.33;;;;;;;12.77;100.00;101980.73;1874612;76;26307;-71
2021/05/27 07:21:09;;;;;;;8.53;5.50;;;;;;;12.67;100.00;101973.70;1874550;76;26235;-73
2021/05/27 07:23:39;;;;;;;6.03;5.20;;;;;;;12.94;100.00;101983.30;1874568;76;26223;-73
2021/05/27 07:26:08;;;;;;;6.00;4.70;;;;;;;12.96;100.00;101981.09;1874602;76;27173;-75
2021/05/27 07:28:38;;;;;;;6.20;4.70;;;;;;;12.91;100.00;101989.99;1874622;76;26209;-73
2021/05/27 07:31:08;;;;;;;4.50;4.10;;;;;;;13.28;100.00;101975.34;1874303;76;26185;-73
2021/05/27 07:33:38;;;;;;;3.83;3.43;;;;;;;13.52;100.00;101972.88;1872292;75;26240;-73
2021/05/27 07:36:09;;;;;;;5.27;3.77;;;;;;;13.71;100.00;101974.55;1872237;77;26192;-73
2021/05/27 07:38:39;;;;;;;3.93;3.57;;;;;;;13.73;100.00;101979.31;1872174;76;26984;-73
2021/05/27 07:41:09;;;;;;;7.13;4.13;;;;;;;14.00;100.00;101973.70;1872222;76;24178;-73
2021/05/27 07:43:39;;;;;;;5.03;3.23;;;;;;;14.41;100.00;101982.91;1872275;76;26321;-73
2021/05/27 07:46:09;;;;;;;4.07;3.13;;;;;;;14.65;100.00;101972.47;1872213;77;26244;-73
2021/05/27 07:48:39;;;;;;;4.53;3.50;;;;;;;14.33;100.00;101979.81;1872249;76;26224;-73
2021/05/27 07:51:09;;;;;;;5.70;3.27;;;;;;;14.80;100.00;101969.07;1872340;76;26337;-73
2021/05/27 07:53:39;;;;;;;4.67;3.53;;;;;;;15.06;100.00;101975.34;1872181;77;26316;-73
2021/05/27 07:56:11;;;;;;;4.33;3.77;;;;;;;15.02;100.00;101971.45;1872203;76;26346;-73
2021/05/27 07:58:40;;;;;;;4.60;3.90;;;;;;;15.13;100.00;101967.49;1872407;77;26636;-74
2021/05/27 08:01:10;;;;;;;3.73;3.20;;;;;;;15.47;100.00;101975.95;1872309;76;26181;-74
2021/05/27 08:03:40;;;;;;;3.30;2.57;;;;;;;15.66;100.00;101975.55;1872215;76;26278;-74
2021/05/27 08:06:11;;;;;;;3.90;3.40;;;;;;;15.55;100.00;101972.56;1872233;77;26196;-73
2021/05/27 08:08:40;;;;;;;4.57;2.70;;;;;;;15.82;100.00;101967.31;1872188;77;26189;-73
2021/05/27 08:11:10;;;;;;;4.33;2.83;;;;;;;15.79;100.00;101964.23;1872280;76;26595;-73
2021/05/27 08:13:41;;;;;;;5.47;2.67;;;;;;;15.99;100.00;101966.04;1872319;77;26353;-73
2021/05/27 08:16:11;;;;;;;5.07;2.50;;;;;;;16.14;100.00;101963.91;1872295;76;26282;-73
2021/05/27 08:18:41;;;;;;;2.97;2.50;;;;;;;16.12;100.00;101966.20;1872153;77;26301;-73
2021/05/27 08:21:11;;;;;;;3.27;2.80;;;;;;;16.44;100.00;101973.13;1872148;76;26233;-73
2021/05/27 08:23:40;;;;;;;3.47;2.63;;;;;;;16.82;100.00;101973.55;1872231;76;26243;-74
2021/05/27 08:26:10;;;;;;;2.50;2.10;;;;;;;16.62;100.00;101971.00;1872293;76;26628;-74
2021/05/27 08:28:40;;;;;;;2.83;1.97;;;;;;;16.60;100.00;101982.52;1872200;76;26651;-74
2021/05/27 08:31:10;;;;;;;3.20;2.10;;;;;;;16.81;100.00;101977.52;1872363;76;26198;-74
2021/05/27 08:33:39;;;;;;;2.80;1.60;;;;;;;17.06;100.00;101978.59;1874082;76;26285;-74
2021/05/27 08:36:09;;;;;;;2.90;2.07;;;;;;;16.91;100.00;101982.98;1874625;76;26264;-73
2021/05/27 08:38:39;;;;;;;2.57;2.00;;;;;;;17.15;100.00;101975.94;1874687;76;26243;-74
2021/05/27 08:41:10;;;;;;;2.10;1.90;;;;;;;17.34;100.00;101979.58;1874721;76;26242;-74
2021/05/27 08:43:40;;;;;;;2.00;1.87;;;;;;;17.29;100.00;101980.48;1874747;76;26275;-73
2021/05/27 08:46:10;;;;;;;2.80;1.87;;;;;;;17.44;100.00;101977.20;1874576;76;26248;-74
2021/05/27 08:48:41;;;;;;;2.03;1.80;;;;;;;17.78;100.00;101989.61;1874675;76;26291;-73
2021/05/27 08:51:12;;;;;;;2.00;1.80;;;;;;;17.79;100.00;101986.51;1874578;76;26679;-74
2021/05/27 08:53:42;;;;;;;2.23;1.60;;;;;;;17.72;100.00;101986.88;1874734;76;26264;-74
2021/05/27 08:56:13;;;;;;;2.70;2.00;;;;;;;17.80;100.00;101989.56;1874559;76;26261;-74
2021/05/27 08:58:43;;;;;;;3.30;2.07;;;;;;;17.96;100.00;101991.00;1874583;76;26665;-74
2021/05/27 09:01:13;;;;;;;1.70;1.60;;;;;;;17.53;100.00;101995.04;1874585;76;26270;-74
2021/05/27 09:03:44;;;;;;;1.07;1.07;;;;;;;17.60;100.00;101997.76;1874791;76;26405;-73
2021/05/27 09:06:14;;;;;;;2.20;1.40;;;;;;;17.77;100.00;101996.37;1874588;76;26760;-74
2021/05/27 09:08:45;;;;;;;2.30;1.50;;;;;;;17.91;100.00;101992.48;1874786;76;26239;-74
2021/05/27 09:11:17;;;;;;;2.70;1.20;;;;;;;17.69;100.00;101992.28;1874665;76;26750;-74
2021/05/27 09:13:56;;;;;;;2.33;1.60;;;;;;;17.69;100.00;101992.28;1874584;76;24152;-74
2021/05/27 09:16:26;;;;;;;3.23;1.50;;;;;;;17.82;100.00;102001.91;1874603;76;24607;-74
2021/05/27 09:18:56;;;;;;;2.73;1.70;;;;;;;18.07;100.00;102000.91;1874524;76;26949;-74
2021/05/27 09:21:37;;;;;;;1.60;1.50;;;;;;;17.81;100.00;102001.64;1874672;76;26227;-73
2021/05/27 09:24:08;;;;;;;1.80;1.30;;;;;;;17.96;100.00;102002.24;1874595;76;26328;-74
2021/05/27 09:26:52;;;;;;;2.10;1.50;;;;;;;18.08;100.00;102004.00;1874665;76;26291;-74
2021/05/27 09:29:22;;;;;;;1.40;1.30;;;;;;;18.23;100.00;102002.06;1874612;76;26260;-74
2021/05/27 09:32:03;;;;;;;2.00;1.53;;;;;;;18.14;100.00;102004.16;1874646;76;26190;-74
2021/05/27 09:34:47;;;;;;;3.50;1.13;;;;;;;18.09;100.00;102007.65;1872412;75;24200;-74
2021/05/27 09:37:22;;;;;;;1.10;1.00;;;;;;;18.44;100.00;101994.92;1872091;77;26287;-74
2021/05/27 09:39:52;;;;;;;2.47;1.40;;;;;;;18.48;100.00;101997.38;1872300;76;24140;-75
2021/05/27 09:42:22;;;;;;;2.33;1.70;;;;;;;18.42;100.00;102000.84;1872356;76;26195;-74
2021/05/27 09:44:52;;;;;;;2.60;1.50;;;;;;;18.36;100.00;102011.08;1872204;76;24135;-74
2021/05/27 09:47:32;;;;;;;2.60;1.73;;;;;;;18.43;100.00;102009.56;1872166;77;24120;-74
2021/05/27 09:50:06;;;;;;;3.27;1.83;;;;;;;18.47;100.00;102010.61;1872361;76;24229;-75
2021/05/27 09:52:41;;;;;;;2.40;1.53;;;;;;;18.50;100.00;102007.16;1872288;76;24129;-76
2021/05/27 09:55:14;;;;;;;2.33;1.90;;;;;;;18.50;100.00;102007.16;1872102;77;24153;-73
2021/05/27 09:57:46;;;;;;;1.83;1.27;;;;;;;18.49;100.00;102015.90;1872141;77;24154;-73
2021/05/27 10:00:29;;;;;;;2.50;1.70;;;;;;;18.43;100.00;102015.19;1872243;76;24678;-73
2021/05/27 10:03:01;;;;;;;2.13;1.77;;;;;;;18.45;100.00;102021.89;1872198;76;24129;-74
2021/05/27 10:05:31;;;;;;;2.40;1.60;;;;;;;18.45;100.00;102021.89;1872090;76;26255;-74
2021/05/27 10:08:01;;;;;;;1.53;1.43;;;;;;;18.58;100.00;102021.11;1872291;76;24101;-74
2021/05/27 10:10:30;;;;;;;1.30;1.20;;;;;;;18.69;100.00;102021.19;1872319;76;24164;-74
2021/05/27 10:13:00;;;;;;;2.07;1.50;;;;;;;18.73;100.00;102020.83;1872345;76;24265;-75
2021/05/27 10:15:30;;;;;;;2.13;1.70;;;;;;;18.74;100.00;102020.27;1872179;76;24191;-75
2021/05/27 10:18:03;;;;;;;2.57;1.50;;;;;;;18.64;100.00;102019.31;1872212;76;24250;-74
2021/05/27 10:20:34;;;;;;;2.60;1.40;;;;;;;18.80;100.00;102021.81;1872243;77;24209;-74
2021/05/27 10:23:06;;;;;;;1.80;1.40;;;;;;;18.83;100.00;102016.95;1872297;77;24565;-74
2021/05/27 10:25:36;;;;;;;2.50;1.17;;;;;;;18.63;100.00;102012.58;1872298;76;24187;-74
2021/05/27 10:28:10;;;;;;;1.50;1.33;;;;;;;18.77;100.00;102022.44;1872116;77;26715;-74
2021/05/27 10:30:43;;;;;;;2.47;1.70;;;;;;;19.01;100.00;102019.67;1872158;77;24196;-74
2021/05/27 10:33:19;;;;;;;2.30;1.77;;;;;;;19.14;100.00;102024.20;1872105;76;24231;-75
2021/05/27 10:35:51;;;;;;;1.90;1.50;;;;;;;18.90;100.00;102025.84;1872238;77;24179;-73
2021/05/27 10:38:51;;;;;;;2.77;1.40;;;;;;;18.93;100.00;102022.39;1872160;77;24230;-74
2021/05/27 10:41:23;;;;;;;4.00;1.90;;;;;;;19.11;100.00;102024.27;1872228;76;24266;-74
2021/05/27 10:44:17;;;;;;;3.00;1.40;;;;;;;19.39;100.00;102025.05;1872254;76;26386;-73
2021/05/27 10:47:19;;;;;;;1.10;1.00;;;;;;;19.25;100.00;102028.48;1872145;77;24137;-74
2021/05/27 10:49:59;;;;;;;1.20;1.10;;;;;;;19.13;100.00;102022.52;1844275;76;24121;-74
2021/05/27 10:52:55;;;;;;;1.63;1.10;;;;;;;19.03;100.00;102027.82;1872198;76;24144;-74
2021/05/27 10:55:55;;;;;;;1.77;1.40;;;;;;;19.41;100.00;102029.23;1870368;76;24144;-74
2021/05/27 10:59:14;;;;;;;2.60;1.20;;;;;;;19.27;100.00;102022.78;1872144;77;24136;-75
2021/05/27 11:02:01;;;;;;;4.23;1.27;;;;;;;19.04;100.00;102025.23;1872122;76;26619;-75
2021/05/27 11:04:43;;;;;;;2.70;1.10;;;;;;;19.04;100.00;102026.64;1872428;76;24124;-74
2021/05/27 11:07:16;;;;;;;2.33;1.40;;;;;;;19.48;100.00;102013.31;1871135;76;24129;-74
2021/05/27 11:09:48;;;;;;;1.87;1.40;;;;;;;19.36;100.00;102018.06;1872141;76;24541;-74
2021/05/27 11:12:29;;;;;;;3.00;1.50;;;;;;;19.15;100.00;102014.61;1872243;76;24215;-74
2021/05/27 11:15:24;;;;;;;1.80;1.07;;;;;;;19.31;100.00;102015.92;1872137;76;24129;-74
2021/05/27 11:18:23;;;;;;;1.93;1.13;;;;;;;19.53;100.00;102010.38;1872206;77;24210;-74
2021/05/27 11:20:58;;;;;;;2.60;1.23;;;;;;;19.23;100.00;102011.88;1860732;76;24194;-74
2021/05/27 11:23:26;;;;;;;1.63;1.00;;;;;;;19.10;100.00;102021.18;1871644;76;24102;-74
2021/05/27 11:26:10;;;;;;;2.77;1.00;;;;;;;19.20;100.00;102022.95;1872177;76;24141;-74
2021/05/27 11:28:40;;;;;;;1.57;0.93;;;;;;;18.92;100.00;102020.70;1870723;76;24136;-74
2021/05/27 11:31:10;;;;;;;1.83;1.10;;;;;;;18.57;100.00;102017.45;1872343;76;24133;-74
2021/05/27 11:33:41;;;;;;;1.00;0.90;;;;;;;18.76;100.00;102020.20;1872165;77;26347;-74
2021/05/27 11:36:30;;;;;;;1.97;1.13;;;;;;;18.89;100.00;102028.38;1872179;77;24353;-75
2021/05/27 11:38:59;;;;;;;1.63;1.10;;;;;;;18.99;100.00;102013.53;1872095;76;24623;-74
2021/05/27 11:41:29;;;;;;;1.70;1.10;;;;;;;19.27;100.00;102021.94;1872019;77;26740;-75
2021/05/27 11:44:00;;;;;;;1.17;1.00;;;;;;;19.30;100.00;102026.94;1872146;76;24136;-74
2021/05/27 11:46:31;;;;;;;2.83;1.07;;;;;;;19.30;100.00;102020.72;1872078;76;24136;-75